Time;durP1;ratioP1;P1;durP2;ratioP2;P2;SDS_P1;SDS_P2;PMS_P1;PMS_P2;Temp;Humidity;BMP_temperature;BMP_pressure;BME280_temperature;BME280_humidity;BME280_pressure;Samples;Min_cycle;Max_cycle;Signal;HPM_P1;HPM_P2
2021/11/11 00:01:36;;;;;;;9.13;2.00;;;;;;;17.45;56.49;101824.59;4951241;28;20098;-73
2021/11/11 00:04:05;;;;;;;6.95;2.08;;;;;;;17.48;56.58;101821.03;4932011;29;20047;-73
2021/11/11 00:06:33;;;;;;;11.05;2.35;;;;;;;17.47;56.93;101822.81;4935880;28;20566;-73
2021/11/11 00:09:01;;;;;;;9.48;2.15;;;;;;;17.47;57.27;101820.16;4964999;28;20064;-74
2021/11/11 00:11:29;;;;;;;13.80;3.47;;;;;;;17.46;57.31;101822.81;4955375;28;20126;-74
2021/11/11 00:13:58;;;;;;;13.30;2.35;;;;;;;17.44;57.29;101817.47;4951898;28;20422;-74
2021/11/11 00:16:28;;;;;;;7.45;1.92;;;;;;;17.43;57.18;101817.47;4962660;28;20049;-74
2021/11/11 00:18:56;;;;;;;8.00;1.83;;;;;;;17.40;57.19;101822.78;4955659;28;20174;-74
2021/11/11 00:21:24;;;;;;;12.95;2.33;;;;;;;17.38;57.00;101816.56;4969929;28;20499;-74
2021/11/11 00:23:52;;;;;;;9.75;2.53;;;;;;;17.34;56.83;101804.97;4959216;28;20051;-73
2021/11/11 00:26:20;;;;;;;8.43;2.15;;;;;;;17.32;56.49;101819.19;4951455;28;20137;-74
2021/11/11 00:28:49;;;;;;;8.02;2.38;;;;;;;17.30;56.33;101821.84;4960132;28;20487;-73
2021/11/11 00:31:17;;;;;;;10.40;2.13;;;;;;;17.29;56.43;101814.72;4933685;28;20059;-74
2021/11/11 00:33:46;;;;;;;8.05;2.40;;;;;;;17.30;56.49;101824.53;4964085;28;20407;-74
2021/11/11 00:36:14;;;;;;;10.90;2.50;;;;;;;17.29;56.59;101806.72;4930697;29;20509;-73
2021/11/11 00:38:42;;;;;;;10.88;2.00;;;;;;;17.30;56.72;101816.53;4947859;28;20062;-74
2021/11/11 00:41:10;;;;;;;10.85;2.35;;;;;;;17.29;56.75;101813.84;4939721;28;20046;-74
2021/11/11 00:43:39;;;;;;;8.45;2.10;;;;;;;17.27;56.56;101813.81;4969775;28;20046;-74
2021/11/11 00:46:07;;;;;;;7.05;1.85;;;;;;;17.26;56.12;101825.41;4950182;28;20042;-74
2021/11/11 00:48:35;;;;;;;6.70;2.42;;;;;;;17.27;55.94;101824.50;4943085;28;20387;-73
2021/11/11 00:51:05;;;;;;;9.40;1.30;;;;;;;17.30;55.89;101820.97;4951349;28;20039;-73
2021/11/11 00:53:33;;;;;;;8.52;2.15;;;;;;;17.29;55.65;101806.72;4967915;28;20047;-73
2021/11/11 00:56:00;;;;;;;8.93;2.25;;;;;;;17.27;55.42;101810.25;4958475;28;20047;-73
2021/11/11 00:58:32;;;;;;;12.35;2.60;;;;;;;17.27;55.34;101813.81;4951922;28;20074;-73
2021/11/11 01:01:02;;;;;;;4.80;1.45;;;;;;;17.27;55.45;101816.50;4966386;28;20040;-74
2021/11/11 01:03:34;;;;;;;10.00;2.15;;;;;;;17.28;55.51;101810.28;4980119;28;20043;-74
2021/11/11 01:06:04;;;;;;;10.68;2.00;;;;;;;17.26;55.57;101804.06;4967418;28;20043;-73
2021/11/11 01:08:32;;;;;;;8.07;2.08;;;;;;;17.21;55.71;101799.56;4968790;28;20074;-73
2021/11/11 01:11:01;;;;;;;8.77;2.60;;;;;;;17.18;55.85;101800.44;4969960;28;20570;-74
2021/11/11 01:13:29;;;;;;;7.30;1.85;;;;;;;17.17;56.04;101792.41;4969503;28;20047;-74
2021/11/11 01:15:57;;;;;;;7.88;1.92;;;;;;;17.15;56.29;101792.41;4969297;28;20126;-73
2021/11/11 01:18:24;;;;;;;10.80;3.33;;;;;;;17.15;56.30;101779.06;4951698;28;20046;-73
2021/11/11 01:20:52;;;;;;;9.48;2.80;;;;;;;17.14;56.42;101783.50;4969616;28;20517;-73
2021/11/11 01:23:21;;;;;;;9.90;1.98;;;;;;;17.16;56.26;101793.31;4952195;28;20047;-74
2021/11/11 01:25:49;;;;;;;11.00;2.55;;;;;;;17.17;56.17;101782.66;4968046;28;20051;-73
2021/11/11 01:28:17;;;;;;;11.90;3.05;;;;;;;17.19;56.18;101775.53;4950519;28;20391;-73
2021/11/11 01:30:45;;;;;;;8.98;1.80;;;;;;;17.19;56.14;101770.22;4951924;28;20046;-73
2021/11/11 01:33:28;;;;;;;9.85;2.28;;;;;;;17.21;56.02;101772.88;4968259;28;20046;-74
2021/11/11 01:35:56;;;;;;;7.60;2.80;;;;;;;17.22;55.89;101769.31;4966529;28;20403;-74
2021/11/11 01:38:35;;;;;;;9.52;2.10;;;;;;;17.23;55.92;101760.44;4950825;28;20524;-74
2021/11/11 01:41:06;;;;;;;11.00;3.03;;;;;;;17.22;55.92;101758.63;4968204;28;20051;-74
2021/11/11 01:43:36;;;;;;;6.90;2.45;;;;;;;17.24;56.10;101756.88;4967652;28;20090;-74
2021/11/11 01:46:05;;;;;;;8.43;1.92;;;;;;;17.26;56.32;101760.44;4971167;28;20050;-74
2021/11/11 01:48:33;;;;;;;9.68;1.90;;;;;;;17.25;56.64;101748.88;4972228;28;20039;-74
2021/11/11 01:51:13;;;;;;;7.32;2.13;;;;;;;17.24;56.42;101764.88;4970929;28;20092;-74
2021/11/11 01:53:53;;;;;;;7.65;2.33;;;;;;;17.25;56.58;101754.22;4947279;28;20058;-74
2021/11/11 01:56:23;;;;;;;14.65;2.53;;;;;;;17.22;56.80;101740.84;4951545;28;20055;-74
2021/11/11 01:58:52;;;;;;;12.85;2.30;;;;;;;17.17;56.68;101741.72;4935694;28;20047;-74
2021/11/11 02:01:21;;;;;;;8.25;2.92;;;;;;;17.14;56.74;101739.91;4935527;29;20050;-74
2021/11/11 02:03:49;;;;;;;14.48;2.80;;;;;;;17.10;56.70;101747.03;4949461;28;20037;-73
2021/11/11 02:06:28;;;;;;;6.72;1.42;;;;;;;17.06;56.73;101742.56;4950120;28;20410;-74
2021/11/11 02:09:04;;;;;;;10.02;2.00;;;;;;;17.04;56.82;101738.09;4949425;28;20121;-73
2021/11/11 02:11:55;;;;;;;10.52;1.95;;;;;;;17.03;56.84;101739.00;4948221;28;20063;-73
2021/11/11 02:14:23;;;;;;;11.48;3.13;;;;;;;17.02;56.96;101734.53;4950138;28;20519;-73
2021/11/11 02:16:52;;;;;;;6.25;2.15;;;;;;;17.00;57.07;101739.00;4933939;28;20514;-74
2021/11/11 02:19:37;;;;;;;11.00;3.03;;;;;;;16.98;57.13;101732.75;4926410;28;20055;-74
2021/11/11 02:22:08;;;;;;;12.10;2.38;;;;;;;16.98;57.52;101738.97;4935016;29;20400;-73
2021/11/11 02:24:41;;;;;;;3.15;1.50;;;;;;;16.97;57.67;101730.97;4950449;28;20567;-74
2021/11/11 02:27:14;;;;;;;6.78;2.10;;;;;;;16.95;57.93;101736.28;4939175;29;20043;-74
2021/11/11 02:29:42;;;;;;;9.52;2.30;;;;;;;16.95;57.95;101735.38;4935941;28;20047;-74
2021/11/11 02:32:10;;;;;;;6.13;1.65;;;;;;;16.93;58.12;101730.06;4948964;28;20632;-73
2021/11/11 02:34:43;;;;;;;12.23;2.80;;;;;;;16.92;58.67;101732.72;4950089;28;20082;-74
2021/11/11 02:37:14;;;;;;;13.40;2.67;;;;;;;16.94;58.59;101728.25;4931976;29;20047;-73
2021/11/11 02:40:22;;;;;;;6.65;3.15;;;;;;;16.92;58.72;101730.06;4935077;28;20059;-74
2021/11/11 02:42:52;;;;;;;10.57;2.22;;;;;;;16.91;59.04;101730.94;4952563;28;20122;-73
2021/11/11 02:45:28;;;;;;;10.68;2.72;;;;;;;16.92;59.13;101725.59;4929759;29;20057;-73
2021/11/11 02:48:05;;;;;;;9.85;2.40;;;;;;;16.94;59.39;101730.94;4931239;28;20427;-73
2021/11/11 02:50:40;;;;;;;8.75;1.92;;;;;;;16.95;59.68;101730.03;4949358;29;20046;-74
2021/11/11 02:53:10;;;;;;;9.45;2.15;;;;;;;16.97;59.64;101714.94;4960808;28;20051;-74
2021/11/11 02:55:41;;;;;;;8.30;2.13;;;;;;;16.98;59.71;101716.75;4935011;29;20123;-74
2021/11/11 02:58:11;;;;;;;7.88;1.98;;;;;;;16.99;59.93;101707.84;4948767;29;20749;-73
2021/11/11 03:00:45;;;;;;;9.88;2.70;;;;;;;17.01;60.06;101717.63;4941771;29;20125;-73
2021/11/11 03:03:15;;;;;;;;;;;;;;;17.01;60.02;101717.63;4959848;28;20047;-73
2021/11/11 03:05:43;;;;;;;12.80;2.10;;;;;;;17.01;59.91;101714.06;4960157;28;19922;-73
2021/11/11 03:08:14;;;;;;;10.32;3.10;;;;;;;17.02;59.62;101713.19;4934390;28;20053;-74
2021/11/11 03:10:49;;;;;;;7.35;2.00;;;;;;;17.00;59.52;101722.97;4953790;28;20546;-74
2021/11/11 03:13:21;;;;;;;8.40;2.22;;;;;;;16.98;59.47;101720.31;4938773;29;20432;-74
2021/11/11 03:16:10;;;;;;;9.95;2.00;;;;;;;16.95;58.97;101712.25;4934347;29;20447;-73
2021/11/11 03:18:38;;;;;;;8.05;1.95;;;;;;;16.95;58.95;101716.72;4947126;28;20036;-73
2021/11/11 03:21:06;;;;;;;10.10;2.53;;;;;;;16.94;58.74;101717.59;4951456;29;20542;-73
2021/11/11 03:23:37;;;;;;;9.38;2.70;;;;;;;16.95;58.66;101711.38;4934422;29;20504;-73
2021/11/11 03:26:08;;;;;;;11.65;1.95;;;;;;;16.93;58.63;101707.84;4953389;28;20046;-73
2021/11/11 03:28:40;;;;;;;5.40;1.92;;;;;;;16.92;58.94;101719.38;4935122;29;20076;-73
2021/11/11 03:31:09;;;;;;;14.70;2.60;;;;;;;16.93;59.07;101714.06;4952037;28;20126;-74
2021/11/11 03:33:36;;;;;;;9.30;2.42;;;;;;;16.92;59.34;101714.94;4934363;29;20404;-73
2021/11/11 03:36:04;;;;;;;11.15;2.47;;;;;;;16.93;59.47;101711.38;4939206;28;20043;-73
2021/11/11 03:38:32;;;;;;;7.45;2.35;;;;;;;16.93;59.66;101708.72;4961216;28;20062;-73
2021/11/11 03:41:02;;;;;;;14.13;6.45;;;;;;;16.96;59.58;101703.38;4934494;29;20050;-73
2021/11/11 03:43:35;;;;;;;;;;;;;;;16.94;59.83;101698.91;4935102;29;20558;-74
2021/11/11 03:46:12;;;;;;;16.15;6.60;;;;;;;16.92;60.01;101706.03;4943382;29;20358;-73
2021/11/11 03:48:42;;;;;;;10.80;4.30;;;;;;;16.92;60.49;101700.72;4946302;28;20098;-73
2021/11/11 03:51:11;;;;;;;11.48;5.20;;;;;;;16.93;60.74;101699.84;4925029;28;20423;-74
2021/11/11 03:53:39;;;;;;;13.10;3.88;;;;;;;16.94;60.81;101693.59;4951357;28;20126;-73
2021/11/11 03:56:11;;;;;;;14.68;2.83;;;;;;;16.95;60.86;101688.25;4952752;28;20402;-73
2021/11/11 03:58:39;;;;;;;7.63;2.10;;;;;;;16.92;61.04;101690.94;4958260;28;20095;-73
2021/11/11 04:01:06;;;;;;;8.60;2.47;;;;;;;16.91;61.05;101693.59;4935031;28;20059;-73
2021/11/11 04:03:38;;;;;;;13.45;2.55;;;;;;;16.88;61.19;101689.13;4954664;28;20408;-73
2021/11/11 04:06:05;;;;;;;8.82;2.50;;;;;;;16.87;61.02;101683.78;4950978;28;20110;-74
2021/11/11 04:08:37;;;;;;;7.68;1.85;;;;;;;16.84;61.08;101678.44;4949164;28;20046;-73
2021/11/11 04:11:06;;;;;;;11.15;2.20;;;;;;;16.82;60.97;101688.19;4950491;28;20043;-74
2021/11/11 04:13:37;;;;;;;12.50;2.45;;;;;;;16.82;60.98;101677.53;4948752;28;20633;-74
2021/11/11 04:16:05;;;;;;;6.00;2.25;;;;;;;16.83;60.84;101689.97;4949671;28;20643;-73
2021/11/11 04:18:36;;;;;;;8.05;2.20;;;;;;;16.85;60.51;101686.44;4932669;28;20046;-74
2021/11/11 04:21:06;;;;;;;6.40;2.38;;;;;;;16.84;60.12;101684.66;4948523;28;20043;-74
2021/11/11 04:23:34;;;;;;;9.20;2.22;;;;;;;16.84;59.93;101691.78;4944766;28;20051;-73
2021/11/11 04:26:06;;;;;;;11.13;2.35;;;;;;;16.85;59.87;101698.88;4962605;28;20054;-73
2021/11/11 04:28:45;;;;;;;8.38;2.03;;;;;;;16.86;59.60;101695.34;4933348;28;20542;-74
2021/11/11 04:31:21;;;;;;;8.40;2.40;;;;;;;16.84;59.43;101682.00;4949227;28;20048;-74
2021/11/11 04:33:51;;;;;;;10.48;2.90;;;;;;;16.85;59.32;101685.56;4949300;28;20067;-74
2021/11/11 04:36:38;;;;;;;7.90;2.20;;;;;;;16.84;59.29;101695.34;4949545;28;20043;-74
2021/11/11 04:39:22;;;;;;;8.43;1.95;;;;;;;16.84;59.26;101691.78;4919207;28;20730;-74
2021/11/11 04:42:09;;;;;;;9.93;2.00;;;;;;;16.82;59.31;101688.19;4949656;28;20035;-74
2021/11/11 04:44:46;;;;;;;6.65;2.00;;;;;;;16.79;59.16;101693.53;4950584;28;20051;-74
2021/11/11 04:47:29;;;;;;;7.95;2.10;;;;;;;16.76;59.16;101696.16;4930609;28;20052;-73
2021/11/11 04:52:52;;;;;;;9.00;2.25;;;;;;;16.78;59.11;101697.97;4938911;28;20411;-74
2021/11/11 05:03:43;;;;;;;4.78;1.83;;;;;;;16.87;59.56;101702.47;4945921;28;20039;-73
2021/11/11 05:06:12;;;;;;;10.80;3.15;;;;;;;16.93;59.76;101702.50;4949123;29;20043;-74
2021/11/11 05:08:39;;;;;;;8.25;2.08;;;;;;;16.96;60.00;101700.72;4929209;29;20545;-73
2021/11/11 05:11:07;;;;;;;9.68;2.17;;;;;;;17.01;60.34;101704.28;4939193;28;20134;-75
2021/11/11 05:13:37;;;;;;;11.85;2.55;;;;;;;17.04;60.51;101706.97;4951476;28;20042;-75
2021/11/11 05:16:10;;;;;;;6.32;2.25;;;;;;;17.13;60.47;101707.00;4938186;28;20508;-76
2021/11/11 05:18:38;;;;;;;7.63;2.08;;;;;;;17.20;60.58;101702.56;4969399;28;20407;-76
2021/11/11 05:21:08;;;;;;;8.63;1.92;;;;;;;17.28;60.50;101705.28;4953846;28;20431;-75
2021/11/11 05:23:38;;;;;;;8.27;2.28;;;;;;;17.34;60.44;101706.19;4937890;28;20043;-75
2021/11/11 05:26:07;;;;;;;9.70;2.13;;;;;;;17.40;60.34;101711.53;4955116;28;20043;-76
2021/11/11 05:28:36;;;;;;;8.90;2.35;;;;;;;17.47;60.48;101707.13;4952341;29;20399;-75
2021/11/11 05:31:11;;;;;;;6.45;1.85;;;;;;;17.52;60.35;101711.56;4952744;28;20054;-76
2021/11/11 05:33:41;;;;;;;8.27;2.38;;;;;;;17.55;60.18;101705.34;4939837;28;20051;-75
2021/11/11 05:36:10;;;;;;;10.75;2.40;;;;;;;17.57;59.97;101713.38;4951001;28;20097;-76
2021/11/11 05:38:38;;;;;;;8.82;2.05;;;;;;;17.58;59.67;101724.06;4943911;28;20039;-76
2021/11/11 05:41:07;;;;;;;10.77;2.38;;;;;;;17.59;59.50;101708.94;4952411;28;20043;-76
2021/11/11 05:43:36;;;;;;;6.72;2.00;;;;;;;17.61;59.55;101723.19;4953048;28;20158;-76
2021/11/11 05:46:04;;;;;;;6.15;1.98;;;;;;;17.64;59.31;101724.13;4948678;28;20443;-76
2021/11/11 05:48:35;;;;;;;10.15;2.22;;;;;;;17.67;59.49;101712.53;4952688;28;20047;-75
2021/11/11 05:51:06;;;;;;;10.77;3.15;;;;;;;17.68;59.50;101708.97;4948705;28;20082;-75
2021/11/11 05:53:35;;;;;;;4.95;2.22;;;;;;;17.71;59.54;101715.22;4953885;28;20047;-76
2021/11/11 05:56:02;;;;;;;9.52;1.98;;;;;;;17.75;59.48;101716.13;4944037;28;20043;-75
2021/11/11 05:58:30;;;;;;;8.57;2.03;;;;;;;17.76;59.27;101723.25;4957240;28;20457;-76
2021/11/11 06:00:58;;;;;;;9.65;2.60;;;;;;;17.81;59.20;101730.38;4935074;28;20101;-75
2021/11/11 06:03:36;;;;;;;10.05;2.20;;;;;;;17.89;59.14;101717.91;4945134;29;20043;-75
2021/11/11 06:06:06;;;;;;;10.70;2.70;;;;;;;18.00;59.10;101719.69;4952092;29;20043;-75
2021/11/11 06:08:39;;;;;;;5.72;1.75;;;;;;;18.06;58.87;101717.91;4951467;28;20066;-76
2021/11/11 06:11:08;;;;;;;5.68;2.03;;;;;;;18.11;58.39;101728.63;4950721;28;20061;-74
2021/11/11 06:13:36;;;;;;;7.00;1.83;;;;;;;18.14;58.44;101726.84;4950312;28;20043;-73
2021/11/11 06:16:04;;;;;;;8.73;2.25;;;;;;;18.18;58.21;101736.63;4952680;28;20063;-74
2021/11/11 06:18:32;;;;;;;8.07;2.08;;;;;;;18.23;57.79;101734.88;4950870;28;20059;-72
2021/11/11 06:21:02;;;;;;;8.63;2.95;;;;;;;18.28;57.53;101746.44;4952378;28;20057;-73
2021/11/11 06:23:39;;;;;;;5.80;2.10;;;;;;;18.35;57.63;101738.41;4950455;29;20047;-73
2021/11/11 06:26:07;;;;;;;6.75;2.63;;;;;;;18.39;57.25;101746.41;4952205;28;20094;-73
2021/11/11 06:28:50;;;;;;;6.07;1.80;;;;;;;18.50;56.65;101743.75;4938033;28;20062;-73
2021/11/11 06:31:19;;;;;;;9.82;2.10;;;;;;;18.59;56.76;101746.44;4940028;28;20045;-73
2021/11/11 06:33:46;;;;;;;9.35;2.38;;;;;;;18.65;56.82;101744.63;4953409;28;20047;-73
2021/11/11 06:36:18;;;;;;;11.18;2.10;;;;;;;18.62;56.69;101738.41;4928304;28;20134;-73
2021/11/11 06:38:47;;;;;;;9.77;2.20;;;;;;;18.64;56.80;101742.00;4948160;28;20043;-73
2021/11/11 06:41:14;;;;;;;6.47;2.17;;;;;;;18.81;56.89;101745.50;4952052;28;20448;-72
2021/11/11 06:43:43;;;;;;;13.52;2.30;;;;;;;18.86;56.52;101737.47;4952087;28;20130;-72
2021/11/11 06:46:11;;;;;;;9.23;2.20;;;;;;;18.82;56.69;101741.94;4951661;29;20054;-73
2021/11/11 06:48:39;;;;;;;8.10;2.55;;;;;;;18.81;57.03;101748.19;4950733;28;20043;-71
2021/11/11 06:51:07;;;;;;;13.38;3.35;;;;;;;18.82;56.85;101749.09;4935593;28;20500;-72
2021/11/11 06:53:37;;;;;;;7.15;2.17;;;;;;;18.78;56.88;101737.47;4962752;28;20050;-72
2021/11/11 06:56:05;;;;;;;8.57;2.35;;;;;;;18.70;56.81;101752.69;4958185;28;20443;-72
2021/11/11 06:58:33;;;;;;;12.93;2.80;;;;;;;18.63;56.61;101754.47;4957722;28;20090;-72
2021/11/11 07:01:04;;;;;;;9.00;2.20;;;;;;;18.66;56.79;101740.19;4941345;28;20047;-72
2021/11/11 07:03:32;;;;;;;10.00;2.28;;;;;;;18.84;56.81;101740.13;4950795;28;20087;-71
2021/11/11 07:06:01;;;;;;;12.50;2.63;;;;;;;18.91;56.26;101744.56;4933093;28;21033;-73
2021/11/11 07:08:29;;;;;;;7.35;2.35;;;;;;;18.93;56.23;101749.94;4934845;29;20054;-73
2021/11/11 07:10:58;;;;;;;9.50;2.05;;;;;;;18.95;56.46;101749.03;4952099;28;20049;-73
2021/11/11 07:13:26;;;;;;;9.90;3.08;;;;;;;19.14;56.50;101740.94;4951967;28;20131;-73
2021/11/11 07:15:54;;;;;;;8.48;2.97;;;;;;;19.29;56.30;101740.91;4967696;28;20055;-76
2021/11/11 07:18:21;;;;;;;14.55;3.17;;;;;;;19.46;56.14;101737.25;4969190;28;20050;-75
2021/11/11 07:20:50;;;;;;;10.02;2.20;;;;;;;19.57;55.53;101749.69;4960923;28;20035;-73
2021/11/11 07:23:22;;;;;;;10.60;3.20;;;;;;;19.67;54.89;101733.56;4966389;28;20043;-74
2021/11/11 07:25:51;;;;;;;7.47;2.53;;;;;;;19.69;54.59;101730.88;4967358;28;20486;-73
2021/11/11 07:28:20;;;;;;;11.60;2.53;;;;;;;19.75;54.20;101737.09;4969549;28;20499;-74
2021/11/11 07:30:51;;;;;;;10.20;2.70;;;;;;;19.93;54.37;101732.50;4947101;28;20414;-74
2021/11/11 07:33:19;;;;;;;9.95;2.50;;;;;;;20.14;54.02;101732.34;4950522;28;20094;-74
2021/11/11 07:35:47;;;;;;;9.73;2.25;;;;;;;20.39;53.41;101728.56;4951481;29;20047;-74
2021/11/11 07:38:17;;;;;;;8.32;2.53;;;;;;;20.40;53.08;101730.34;4950754;28;20551;-73
2021/11/11 07:40:45;;;;;;;9.48;2.88;;;;;;;20.27;52.44;101734.91;4951623;29;20110;-74
2021/11/11 07:43:13;;;;;;;6.22;2.28;;;;;;;20.11;52.87;101721.63;4960255;28;20138;-73
2021/11/11 07:45:46;;;;;;;8.57;2.83;;;;;;;20.10;53.22;101734.16;4954259;28;20071;-74
2021/11/11 07:48:14;;;;;;;8.68;2.42;;;;;;;20.39;53.29;101727.69;4963731;28;20077;-73
2021/11/11 07:50:43;;;;;;;8.90;2.75;;;;;;;20.59;52.56;101723.91;4948912;29;20039;-73
2021/11/11 07:53:11;;;;;;;8.90;3.00;;;;;;;20.62;51.98;101722.97;4950471;28;20138;-74
2021/11/11 07:55:41;;;;;;;9.40;2.78;;;;;;;20.67;51.91;101722.03;4951449;28;20039;-74
2021/11/11 07:58:10;;;;;;;10.73;2.67;;;;;;;20.74;51.95;101724.66;4950561;28;20086;-73
2021/11/11 08:00:39;;;;;;;11.95;3.20;;;;;;;20.76;51.85;101720.13;4950727;28;20389;-73
2021/11/11 08:03:10;;;;;;;7.13;2.50;;;;;;;20.71;51.88;101725.56;4934642;28;20050;-73
2021/11/11 08:05:39;;;;;;;8.80;2.45;;;;;;;20.59;51.45;101715.84;4940891;28;20058;-73
2021/11/11 08:08:09;;;;;;;9.02;2.30;;;;;;;20.55;51.63;101722.13;4948192;28;20677;-73
2021/11/11 08:10:37;;;;;;;9.82;2.05;;;;;;;20.59;51.84;101721.22;4949840;29;20039;-73
2021/11/11 08:13:05;;;;;;;9.43;2.30;;;;;;;20.64;51.72;101713.13;4942669;28;20039;-73
2021/11/11 08:15:33;;;;;;;11.45;2.35;;;;;;;20.62;51.27;101721.19;4947987;28;20455;-73
2021/11/11 08:18:01;;;;;;;11.73;2.58;;;;;;;20.52;51.73;101713.25;4950227;28;20043;-74
2021/11/11 08:20:30;;;;;;;8.32;2.33;;;;;;;20.45;51.72;101720.47;4951427;29;20126;-74
2021/11/11 08:22:58;;;;;;;11.57;2.75;;;;;;;20.40;51.40;101705.31;4948845;28;20102;-74
2021/11/11 08:25:26;;;;;;;7.88;3.25;;;;;;;20.44;51.13;101707.94;4935040;28;20044;-73
2021/11/11 08:27:55;;;;;;;8.25;2.60;;;;;;;20.46;50.93;101703.47;4948252;28;20045;-74
2021/11/11 08:30:24;;;;;;;9.43;2.70;;;;;;;20.49;51.14;101710.59;4950803;28;20479;-74
2021/11/11 08:32:53;;;;;;;10.82;2.50;;;;;;;20.49;51.30;101702.53;4935442;29;20035;-74
2021/11/11 08:35:22;;;;;;;12.93;2.63;;;;;;;20.47;51.38;101707.94;4948017;29;20147;-73
2021/11/11 08:37:53;;;;;;;10.98;3.00;;;;;;;20.49;51.27;101700.75;4933120;28;20039;-74
2021/11/11 08:40:22;;;;;;;9.80;3.10;;;;;;;20.48;51.64;101715.06;4938094;28;20478;-74
2021/11/11 08:42:53;;;;;;;11.27;3.15;;;;;;;20.57;51.71;101704.25;4948504;28;20126;-74
2021/11/11 08:45:23;;;;;;;10.65;2.60;;;;;;;20.69;50.94;101701.41;4946660;28;20123;-74
2021/11/11 08:47:52;;;;;;;7.20;2.00;;;;;;;20.79;50.12;101701.34;4939041;29;20432;-73
2021/11/11 08:50:21;;;;;;;12.98;2.20;;;;;;;20.98;50.05;101689.47;4950004;28;20063;-74
2021/11/11 08:52:54;;;;;;;12.23;3.63;;;;;;;21.38;50.02;101689.88;4943202;28;20097;-74
2021/11/11 08:55:23;;;;;;;11.73;2.53;;;;;;;21.68;49.77;101685.81;4972277;28;20099;-74
2021/11/11 08:57:51;;;;;;;10.27;2.75;;;;;;;21.78;49.67;101688.38;4967040;28;20067;-74
2021/11/11 09:00:21;;;;;;;11.32;2.28;;;;;;;21.74;49.17;101688.41;4952321;29;20047;-74
2021/11/11 09:02:51;;;;;;;9.40;2.53;;;;;;;21.55;49.57;101682.44;4953787;29;20043;-75
2021/11/11 09:05:20;;;;;;;8.50;2.10;;;;;;;21.39;49.19;101679.09;4935518;29;20054;-74
2021/11/11 09:07:48;;;;;;;11.57;2.35;;;;;;;21.23;49.04;101676.63;4959684;28;20471;-74
2021/11/11 09:10:20;;;;;;;10.77;2.65;;;;;;;21.27;49.38;101679.25;4959733;28;20462;-74
2021/11/11 09:12:47;;;;;;;8.73;2.58;;;;;;;21.21;49.04;101662.34;4955246;28;20131;-74
2021/11/11 09:15:18;;;;;;;7.88;2.58;;;;;;;21.01;48.70;101670.63;4966806;28;20066;-74
2021/11/11 09:17:46;;;;;;;13.23;3.22;;;;;;;20.90;49.00;101677.94;4960972;28;20079;-74
2021/11/11 09:20:16;;;;;;;7.93;2.17;;;;;;;20.95;49.06;101668.00;4953111;29;20039;-74
2021/11/11 09:22:44;;;;;;;10.77;2.15;;;;;;;21.12;49.12;101657.06;4953750;28;20035;-74
2021/11/11 09:25:13;;;;;;;10.55;2.50;;;;;;;21.37;48.71;101658.53;4952862;29;20113;-74
2021/11/11 09:27:43;;;;;;;12.73;3.50;;;;;;;21.38;47.80;101654.94;4952308;28;20122;-74
2021/11/11 09:30:14;;;;;;;15.73;3.85;;;;;;;21.45;47.76;101657.53;4951150;29;20047;-74
2021/11/11 09:32:43;;;;;;;10.18;2.40;;;;;;;21.40;47.21;101642.34;4950243;28;20057;-74
2021/11/11 09:35:11;;;;;;;13.75;2.78;;;;;;;21.42;47.31;101644.13;4952468;28;20106;-74
2021/11/11 09:37:40;;;;;;;15.43;2.80;;;;;;;21.56;47.41;101643.91;4953865;28;20122;-74
2021/11/11 09:40:12;;;;;;;13.20;2.60;;;;;;;21.62;47.17;101641.13;4955984;28;20035;-74
2021/11/11 09:42:42;;;;;;;13.65;2.58;;;;;;;21.81;47.39;101630.94;4949194;28;20047;-74
2021/11/11 09:45:12;;;;;;;12.70;2.13;;;;;;;22.03;46.28;101637.78;4952883;28;20125;-74
2021/11/11 09:47:42;;;;;;;9.23;2.00;;;;;;;22.01;45.75;101631.53;4952555;29;20048;-74
2021/11/11 09:50:11;;;;;;;8.40;2.00;;;;;;;22.08;45.86;101622.44;4971000;28;20503;-75
2021/11/11 09:52:40;;;;;;;7.57;1.98;;;;;;;22.13;45.80;101619.66;4971965;28;20034;-74
2021/11/11 10:00:40;;;;;;;6.82;1.92;;;;;;;21.93;45.02;101606.53;4971277;28;20039;-74
2021/11/11 10:03:08;;;;;;;8.68;2.33;;;;;;;21.94;45.38;101602.94;4971522;28;20074;-74
2021/11/11 10:05:36;;;;;;;8.68;2.10;;;;;;;22.01;45.48;101601.97;4952545;28;20097;-74
2021/11/11 10:08:04;;;;;;;9.50;2.20;;;;;;;22.15;45.72;101601.72;4964307;28;20047;-73
2021/11/11 10:10:37;;;;;;;9.65;3.10;;;;;;;22.36;45.87;101603.09;4955032;28;20039;-74
2021/11/11 10:13:18;;;;;;;14.85;2.70;;;;;;;22.48;45.81;101594.78;4971512;28;20042;-73
2021/11/11 10:16:10;;;;;;;11.07;2.33;;;;;;;22.45;45.63;101593.03;4942999;28;20043;-74
2021/11/11 10:18:47;;;;;;;10.07;2.30;;;;;;;22.45;46.00;101606.47;4956754;28;20039;-74
2021/11/11 10:21:40;;;;;;;11.55;2.28;;;;;;;22.47;45.44;101596.59;4951521;28;20044;-73
2021/11/11 10:24:18;;;;;;;17.77;3.33;;;;;;;22.25;45.49;101588.03;4949094;28;20055;-73
2021/11/11 10:26:53;;;;;;;11.10;3.03;;;;;;;22.05;45.64;101594.72;4940375;28;20094;-73
2021/11/11 10:29:30;;;;;;;10.27;2.28;;;;;;;21.76;45.96;101584.44;4960346;28;20043;-73
2021/11/11 10:32:06;;;;;;;9.25;2.22;;;;;;;21.52;45.81;101580.38;4954338;28;20082;-73
2021/11/11 10:34:34;;;;;;;10.75;2.22;;;;;;;21.32;46.24;101569.06;4956232;28;20051;-73
2021/11/11 10:37:03;;;;;;;10.63;2.85;;;;;;;21.21;46.27;101571.91;4951841;28;20145;-72
2021/11/11 10:39:33;;;;;;;13.98;2.50;;;;;;;21.17;46.62;101577.34;4958275;28;20040;-74
2021/11/11 10:42:15;;;;;;;9.95;2.70;;;;;;;21.19;46.77;101567.47;4947967;28;20050;-73
2021/11/11 10:44:45;;;;;;;12.50;3.10;;;;;;;21.26;47.17;101559.31;4947827;28;20043;-74
2021/11/11 10:47:12;;;;;;;11.10;2.53;;;;;;;21.42;47.15;101566.19;4951243;28;20042;-74
2021/11/11 10:49:42;;;;;;;12.82;3.00;;;;;;;21.43;47.26;101572.47;4953553;28;21315;-73
2021/11/11 10:52:37;;;;;;;10.65;2.75;;;;;;;21.47;47.05;101561.63;4977714;28;20070;-72
2021/11/11 10:55:28;;;;;;;13.98;2.17;;;;;;;21.42;47.08;101555.44;4940423;28;20424;-72
2021/11/11 10:58:03;;;;;;;11.52;2.53;;;;;;;21.28;47.02;101560.16;4953494;28;20039;-73
2021/11/11 11:00:49;;;;;;;16.77;3.15;;;;;;;21.19;47.50;101562.13;4966893;28;20564;-73
2021/11/11 11:03:19;;;;;;;13.18;3.30;;;;;;;21.17;47.37;101564.81;4968613;28;20158;-73
2021/11/11 11:05:56;;;;;;;9.73;2.30;;;;;;;21.21;47.60;101554.91;4967621;28;20117;-73
2021/11/11 11:08:26;;;;;;;9.07;2.00;;;;;;;21.21;47.31;101553.09;4972717;28;20054;-73
2021/11/11 11:10:58;;;;;;;8.73;2.17;;;;;;;21.26;47.45;101551.25;4953710;28;20078;-73
2021/11/11 11:13:30;;;;;;;8.40;2.53;;;;;;;21.25;47.30;101538.72;4968806;28;20046;-74
2021/11/11 11:16:01;;;;;;;9.35;2.53;;;;;;;21.26;47.18;101556.63;4973207;28;20047;-72
2021/11/11 11:18:33;;;;;;;8.73;2.55;;;;;;;21.27;47.11;101554.78;4969318;28;20046;-75
2021/11/11 11:21:05;;;;;;;10.23;2.53;;;;;;;21.23;46.86;101553.97;4974067;28;20081;-73
2021/11/11 11:23:39;;;;;;;8.48;2.03;;;;;;;21.28;46.75;101552.09;4963190;28;20450;-73
2021/11/11 11:26:15;;;;;;;9.52;1.90;;;;;;;21.40;46.88;101543.84;4971081;28;20039;-73
2021/11/11 11:29:05;;;;;;;9.18;2.10;;;;;;;21.60;46.79;101553.34;4970531;28;20490;-74
2021/11/11 11:31:42;;;;;;;10.07;2.00;;;;;;;21.69;46.69;101537.09;4972220;28;20042;-73
2021/11/11 11:34:14;;;;;;;7.25;2.25;;;;;;;21.63;46.46;101539.88;4979674;28;20078;-73
2021/11/11 11:36:45;;;;;;;11.98;2.65;;;;;;;21.54;46.71;101542.72;4973424;28;20181;-73
2021/11/11 11:39:19;;;;;;;15.25;2.80;;;;;;;21.60;47.00;101542.59;4966806;28;20047;-73
2021/11/11 11:41:47;;;;;;;13.43;2.97;;;;;;;21.62;46.50;101539.00;4971438;28;20125;-73
2021/11/11 11:44:28;;;;;;;8.98;2.33;;;;;;;21.66;46.54;101545.22;4956176;28;20065;-73
2021/11/11 11:47:09;;;;;;;35.60;5.07;;;;;;;21.57;46.73;101531.94;4966595;28;20057;-73
2021/11/11 11:49:40;;;;;;;11.80;2.40;;;;;;;21.52;46.77;101529.34;4953010;28;20047;-73
2021/11/11 11:52:09;;;;;;;11.90;2.38;;;;;;;21.48;46.87;101527.59;4970595;28;20051;-74
2021/11/11 11:54:43;;;;;;;13.48;2.25;;;;;;;21.44;46.57;101532.16;4936016;29;20043;-73
2021/11/11 11:57:19;;;;;;;20.58;2.63;;;;;;;21.48;46.62;101525.78;4951713;28;20122;-73